Terminal Aerodrome Forecast
Issued by NWS

Home | Current Version | Previous Version | Text Only | Print | Product List | Glossary On
Versions: 1 2 3 4 5 6 7 8 9 10 11 12 13 14 15 16 17 18 19 20 21 22 23 24 25 26 27 28 29 30 31 32 33 34 35 36 37 38
000
FTUS41 KBOX 232325
TAFHYA
TAF
KHYA 232325Z 2400/2424 35005KT P6SM OVC045
     FM240600 00000KT P6SM -SHRA OVC060
     FM240900 03005KT P6SM -SHRA OVC030
     FM241100 04008KT P6SM VCSH OVC035
     FM241200 04009KT P6SM OVC025
     FM241700 03009KT P6SM BKN080=

USA.gov is the U.S. government's official web portal to all federal, state and local government web resources and services.